sensor_id;sensor_type;location;lat;lon;timestamp;pressure;altitude;pressure_sealevel;temperature;humidity
41515;BME280;27247;48.020;16.720;2023-04-25T00:03:58;99081.28;;;10.36;83.70
41515;BME280;27247;48.020;16.720;2023-04-25T00:08:08;99090.25;;;10.28;83.57
41515;BME280;27247;48.020;16.720;2023-04-25T00:12:19;99077.59;;;10.37;83.07
41515;BME280;27247;48.020;16.720;2023-04-25T00:16:30;99077.72;;;10.29;82.79
41515;BME280;27247;48.020;16.720;2023-04-25T00:20:43;99078.56;;;10.29;83.14
41515;BME280;27247;48.020;16.720;2023-04-25T00:24:56;99072.38;;;10.29;83.34
41515;BME280;27247;48.020;16.720;2023-04-25T00:29:10;99079.38;;;10.30;82.92
41515;BME280;27247;48.020;16.720;2023-04-25T00:33:20;99073.03;;;10.31;82.79
41515;BME280;27247;48.020;16.720;2023-04-25T00:37:31;99077.28;;;10.25;82.21
41515;BME280;27247;48.020;16.720;2023-04-25T00:41:41;99077.09;;;10.27;82.45
41515;BME280;27247;48.020;16.720;2023-04-25T00:45:53;99071.75;;;10.27;82.22
41515;BME280;27247;48.020;16.720;2023-04-25T00:50:04;99070.47;;;10.22;82.61
41515;BME280;27247;48.020;16.720;2023-04-25T00:54:14;99078.97;;;10.11;82.23
41515;BME280;27247;48.020;16.720;2023-04-25T00:58:25;99081.34;;;10.21;82.80
41515;BME280;27247;48.020;16.720;2023-04-25T01:02:36;99072.34;;;10.22;82.57
41515;BME280;27247;48.020;16.720;2023-04-25T01:06:47;99070.00;;;10.19;82.83
41515;BME280;27247;48.020;16.720;2023-04-25T01:10:58;99057.63;;;10.11;82.28
41515;BME280;27247;48.020;16.720;2023-04-25T01:15:08;99066.91;;;10.15;82.89
41515;BME280;27247;48.020;16.720;2023-04-25T01:19:19;99064.41;;;10.14;82.27
41515;BME280;27247;48.020;16.720;2023-04-25T01:23:31;99072.00;;;10.10;82.25
41515;BME280;27247;48.020;16.720;2023-04-25T01:27:43;99066.97;;;10.01;82.10
41515;BME280;27247;48.020;16.720;2023-04-25T01:31:54;99070.16;;;10.11;81.89
41515;BME280;27247;48.020;16.720;2023-04-25T01:36:05;99069.19;;;10.18;82.04
41515;BME280;27247;48.020;16.720;2023-04-25T01:40:15;99056.75;;;10.04;82.31
41515;BME280;27247;48.020;16.720;2023-04-25T01:44:26;99050.63;;;10.10;82.15
41515;BME280;27247;48.020;16.720;2023-04-25T01:48:36;99053.50;;;10.09;81.65
41515;BME280;27247;48.020;16.720;2023-04-25T01:52:46;99047.31;;;10.08;81.18
41515;BME280;27247;48.020;16.720;2023-04-25T01:56:57;99042.44;;;10.12;81.23
41515;BME280;27247;48.020;16.720;2023-04-25T02:01:08;99037.88;;;10.06;81.54
41515;BME280;27247;48.020;16.720;2023-04-25T02:05:18;99042.38;;;10.05;81.23
41515;BME280;27247;48.020;16.720;2023-04-25T02:09:29;99046.44;;;10.01;80.17
41515;BME280;27247;48.020;16.720;2023-04-25T02:13:39;99053.75;;;9.92;80.34
41515;BME280;27247;48.020;16.720;2023-04-25T02:17:50;99047.84;;;9.97;80.37
41515;BME280;27247;48.020;16.720;2023-04-25T02:22:02;99066.09;;;9.93;79.64
41515;BME280;27247;48.020;16.720;2023-04-25T02:26:13;99063.41;;;9.93;80.12
41515;BME280;27247;48.020;16.720;2023-04-25T02:30:23;99051.16;;;9.99;80.33
41515;BME280;27247;48.020;16.720;2023-04-25T02:34:33;99062.19;;;9.96;80.02
41515;BME280;27247;48.020;16.720;2023-04-25T02:38:44;99054.78;;;9.91;80.25
41515;BME280;27247;48.020;16.720;2023-04-25T02:42:54;99057.88;;;9.95;80.86
41515;BME280;27247;48.020;16.720;2023-04-25T02:47:05;99061.56;;;9.94;80.63
41515;BME280;27247;48.020;16.720;2023-04-25T02:51:15;99047.66;;;9.99;80.21
41515;BME280;27247;48.020;16.720;2023-04-25T02:55:26;99044.47;;;9.88;80.68
41515;BME280;27247;48.020;16.720;2023-04-25T02:59:36;99052.22;;;9.83;81.29
41515;BME280;27247;48.020;16.720;2023-04-25T03:03:47;99054.84;;;9.77;81.30
41515;BME280;27247;48.020;16.720;2023-04-25T03:07:57;99063.72;;;9.84;81.01
41515;BME280;27247;48.020;16.720;2023-04-25T03:12:07;99060.22;;;9.83;81.26
41515;BME280;27247;48.020;16.720;2023-04-25T03:16:18;99052.84;;;9.64;81.61
41515;BME280;27247;48.020;16.720;2023-04-25T03:20:28;99064.03;;;9.74;81.86
41515;BME280;27247;48.020;16.720;2023-04-25T03:24:38;99067.19;;;9.63;81.99
41515;BME280;27247;48.020;16.720;2023-04-25T03:28:49;99064.72;;;9.62;82.54
41515;BME280;27247;48.020;16.720;2023-04-25T03:32:59;99068.84;;;9.64;82.96
41515;BME280;27247;48.020;16.720;2023-04-25T03:37:10;99076.78;;;9.57;83.35
41515;BME280;27247;48.020;16.720;2023-04-25T03:41:20;99078.63;;;9.57;83.71
41515;BME280;27247;48.020;16.720;2023-04-25T03:45:30;99076.06;;;9.49;84.70
41515;BME280;27247;48.020;16.720;2023-04-25T03:49:41;99072.13;;;9.45;84.35
41515;BME280;27247;48.020;16.720;2023-04-25T03:53:52;99083.53;;;9.39;84.66
41515;BME280;27247;48.020;16.720;2023-04-25T03:58:02;99084.69;;;9.36;85.44
41515;BME280;27247;48.020;16.720;2023-04-25T04:02:12;99086.66;;;9.27;85.52
41515;BME280;27247;48.020;16.720;2023-04-25T04:06:23;99085.00;;;9.26;85.32
41515;BME280;27247;48.020;16.720;2023-04-25T04:10:33;99091.63;;;9.16;85.35
41515;BME280;27247;48.020;16.720;2023-04-25T04:14:43;99100.25;;;9.18;85.60
41515;BME280;27247;48.020;16.720;2023-04-25T04:18:53;99102.56;;;9.21;85.79
41515;BME280;27247;48.020;16.720;2023-04-25T04:23:14;99104.94;;;9.16;86.49
41515;BME280;27247;48.020;16.720;2023-04-25T04:27:24;99095.66;;;9.12;86.93
41515;BME280;27247;48.020;16.720;2023-04-25T04:31:35;99095.22;;;9.08;86.90
41515;BME280;27247;48.020;16.720;2023-04-25T04:35:50;99098.69;;;9.09;87.02
41515;BME280;27247;48.020;16.720;2023-04-25T04:40:02;99099.06;;;9.06;86.59
41515;BME280;27247;48.020;16.720;2023-04-25T04:44:15;99107.25;;;9.04;86.84
41515;BME280;27247;48.020;16.720;2023-04-25T04:48:25;99106.59;;;9.02;86.69
41515;BME280;27247;48.020;16.720;2023-04-25T04:52:36;99115.44;;;9.03;86.91
41515;BME280;27247;48.020;16.720;2023-04-25T04:56:47;99114.59;;;9.02;87.68
41515;BME280;27247;48.020;16.720;2023-04-25T05:00:57;99114.13;;;8.99;86.53
41515;BME280;27247;48.020;16.720;2023-04-25T05:05:08;99117.91;;;9.04;86.41
41515;BME280;27247;48.020;16.720;2023-04-25T05:09:18;99116.06;;;9.05;86.02
41515;BME280;27247;48.020;16.720;2023-04-25T05:13:29;99110.19;;;9.09;85.71
41515;BME280;27247;48.020;16.720;2023-04-25T05:17:39;99109.38;;;9.09;85.46
41515;BME280;27247;48.020;16.720;2023-04-25T05:21:50;99101.38;;;9.09;85.04
41515;BME280;27247;48.020;16.720;2023-04-25T05:26:00;99098.88;;;9.07;84.44
41515;BME280;27247;48.020;16.720;2023-04-25T05:30:11;99096.50;;;9.12;83.61
41515;BME280;27247;48.020;16.720;2023-04-25T05:34:21;99100.63;;;9.15;83.69
41515;BME280;27247;48.020;16.720;2023-04-25T05:38:32;99107.88;;;9.21;83.08
41515;BME280;27247;48.020;16.720;2023-04-25T05:42:42;99107.69;;;9.22;83.33
41515;BME280;27247;48.020;16.720;2023-04-25T05:46:52;99103.56;;;9.20;83.10
41515;BME280;27247;48.020;16.720;2023-04-25T05:51:03;99105.13;;;9.00;83.53
41515;BME280;27247;48.020;16.720;2023-04-25T05:55:13;99102.28;;;9.01;83.46
41515;BME280;27247;48.020;16.720;2023-04-25T05:59:24;99104.03;;;9.09;83.83
41515;BME280;27247;48.020;16.720;2023-04-25T06:03:34;99107.63;;;9.16;83.27
41515;BME280;27247;48.020;16.720;2023-04-25T06:07:45;99101.63;;;9.14;82.74
41515;BME280;27247;48.020;16.720;2023-04-25T06:11:55;99098.97;;;9.14;82.04
41515;BME280;27247;48.020;16.720;2023-04-25T06:16:05;99093.09;;;9.18;81.67
41515;BME280;27247;48.020;16.720;2023-04-25T06:20:16;99098.69;;;9.23;81.54
41515;BME280;27247;48.020;16.720;2023-04-25T06:24:26;99106.16;;;9.43;81.97
41515;BME280;27247;48.020;16.720;2023-04-25T06:28:37;99111.09;;;9.60;81.72
41515;BME280;27247;48.020;16.720;2023-04-25T06:32:47;99108.34;;;9.90;81.46
41515;BME280;27247;48.020;16.720;2023-04-25T06:36:57;99110.88;;;10.19;80.71
41515;BME280;27247;48.020;16.720;2023-04-25T06:41:08;99085.69;;;10.43;78.74
41515;BME280;27247;48.020;16.720;2023-04-25T06:45:18;99088.59;;;10.76;79.17
41515;BME280;27247;48.020;16.720;2023-04-25T06:49:28;99092.94;;;11.12;78.04
41515;BME280;27247;48.020;16.720;2023-04-25T06:53:39;99097.25;;;11.47;75.61
41515;BME280;27247;48.020;16.720;2023-04-25T06:57:50;99086.25;;;11.77;74.28
41515;BME280;27247;48.020;16.720;2023-04-25T07:02:01;99085.91;;;12.00;73.63
41515;BME280;27247;48.020;16.720;2023-04-25T07:06:12;99079.75;;;12.26;70.99
41515;BME280;27247;48.020;16.720;2023-04-25T07:10:22;99087.59;;;12.27;70.10
41515;BME280;27247;48.020;16.720;2023-04-25T07:14:32;99077.91;;;12.46;68.20
41515;BME280;27247;48.020;16.720;2023-04-25T07:18:43;99074.22;;;12.60;67.46
41515;BME280;27247;48.020;16.720;2023-04-25T07:22:53;99062.44;;;12.88;67.55
41515;BME280;27247;48.020;16.720;2023-04-25T07:27:03;99072.69;;;13.10;69.07
41515;BME280;27247;48.020;16.720;2023-04-25T07:31:14;99065.84;;;13.34;67.80
41515;BME280;27247;48.020;16.720;2023-04-25T07:35:26;99066.59;;;13.48;64.49
41515;BME280;27247;48.020;16.720;2023-04-25T07:39:36;99060.78;;;13.64;64.84
41515;BME280;27247;48.020;16.720;2023-04-25T07:43:47;99050.34;;;13.81;65.56
41515;BME280;27247;48.020;16.720;2023-04-25T07:47:57;99052.97;;;13.94;63.32
41515;BME280;27247;48.020;16.720;2023-04-25T07:52:08;99052.44;;;14.11;63.36
41515;BME280;27247;48.020;16.720;2023-04-25T07:56:18;99046.78;;;14.19;63.11
41515;BME280;27247;48.020;16.720;2023-04-25T08:00:28;99034.28;;;14.31;62.22
41515;BME280;27247;48.020;16.720;2023-04-25T08:04:39;99025.22;;;14.57;63.96
41515;BME280;27247;48.020;16.720;2023-04-25T08:08:49;99021.31;;;14.78;61.37
41515;BME280;27247;48.020;16.720;2023-04-25T08:13:00;99015.09;;;14.95;61.55
41515;BME280;27247;48.020;16.720;2023-04-25T08:17:10;99013.53;;;15.06;60.11
41515;BME280;27247;48.020;16.720;2023-04-25T08:21:21;99022.34;;;15.13;62.27
41515;BME280;27247;48.020;16.720;2023-04-25T08:25:31;99011.84;;;15.42;61.05
41515;BME280;27247;48.020;16.720;2023-04-25T08:29:41;99020.81;;;15.72;60.44
41515;BME280;27247;48.020;16.720;2023-04-25T08:33:52;99028.94;;;15.84;61.09
41515;BME280;27247;48.020;16.720;2023-04-25T08:38:02;99031.44;;;15.97;59.66
41515;BME280;27247;48.020;16.720;2023-04-25T08:42:13;99026.50;;;15.94;58.24
41515;BME280;27247;48.020;16.720;2023-04-25T08:46:25;99026.69;;;16.11;57.77
41515;BME280;27247;48.020;16.720;2023-04-25T08:50:40;99030.88;;;16.07;58.26
41515;BME280;27247;48.020;16.720;2023-04-25T08:54:54;99021.16;;;16.06;57.50
41515;BME280;27247;48.020;16.720;2023-04-25T08:59:05;99026.72;;;16.34;57.23
41515;BME280;27247;48.020;16.720;2023-04-25T09:03:19;99020.50;;;16.57;56.41
41515;BME280;27247;48.020;16.720;2023-04-25T09:07:30;99011.94;;;16.25;58.21
41515;BME280;27247;48.020;16.720;2023-04-25T09:11:40;99021.19;;;16.17;58.99
41515;BME280;27247;48.020;16.720;2023-04-25T09:15:53;99016.16;;;16.44;57.31
41515;BME280;27247;48.020;16.720;2023-04-25T09:20:08;99015.63;;;16.89;57.02
41515;BME280;27247;48.020;16.720;2023-04-25T09:24:39;99018.78;;;16.98;57.63
41515;BME280;27247;48.020;16.720;2023-04-25T09:29:04;99023.13;;;16.87;57.30
41515;BME280;27247;48.020;16.720;2023-04-25T09:33:15;99028.00;;;17.25;55.88
41515;BME280;27247;48.020;16.720;2023-04-25T09:37:30;99023.91;;;17.22;55.60
41515;BME280;27247;48.020;16.720;2023-04-25T09:41:40;99023.34;;;17.49;52.90
41515;BME280;27247;48.020;16.720;2023-04-25T09:45:53;99022.00;;;17.63;55.64
41515;BME280;27247;48.020;16.720;2023-04-25T09:50:14;99021.69;;;17.71;53.54
41515;BME280;27247;48.020;16.720;2023-04-25T09:54:25;99019.44;;;17.56;55.16
41515;BME280;27247;48.020;16.720;2023-04-25T09:58:38;99014.44;;;16.97;55.51
41515;BME280;27247;48.020;16.720;2023-04-25T10:02:49;99026.25;;;16.49;56.69
41515;BME280;27247;48.020;16.720;2023-04-25T10:07:03;99025.75;;;16.28;59.32
41515;BME280;27247;48.020;16.720;2023-04-25T10:11:15;99014.78;;;15.58;61.06
41515;BME280;27247;48.020;16.720;2023-04-25T10:15:27;99024.75;;;15.21;64.72
41515;BME280;27247;48.020;16.720;2023-04-25T10:19:39;99024.34;;;14.63;66.34
41515;BME280;27247;48.020;16.720;2023-04-25T10:23:49;99024.63;;;13.98;70.61
41515;BME280;27247;48.020;16.720;2023-04-25T10:28:00;99036.50;;;13.84;73.97
41515;BME280;27247;48.020;16.720;2023-04-25T10:32:13;99034.63;;;13.85;72.78
41515;BME280;27247;48.020;16.720;2023-04-25T10:36:24;99030.47;;;13.57;70.79
41515;BME280;27247;48.020;16.720;2023-04-25T10:40:37;99040.22;;;13.38;68.53
41515;BME280;27247;48.020;16.720;2023-04-25T10:45:01;99052.16;;;13.49;68.64
41515;BME280;27247;48.020;16.720;2023-04-25T10:53:40;99036.38;;;13.21;69.85
41515;BME280;27247;48.020;16.720;2023-04-25T10:57:51;99041.31;;;13.11;72.39
41515;BME280;27247;48.020;16.720;2023-04-25T11:02:11;99048.25;;;13.45;69.91
41515;BME280;27247;48.020;16.720;2023-04-25T11:06:50;99048.63;;;13.93;72.68
41515;BME280;27247;48.020;16.720;2023-04-25T11:11:02;99031.59;;;14.31;70.51
41515;BME280;27247;48.020;16.720;2023-04-25T11:15:12;99035.41;;;14.48;67.26
41515;BME280;27247;48.020;16.720;2023-04-25T11:19:24;99023.69;;;15.04;66.78
41515;BME280;27247;48.020;16.720;2023-04-25T11:23:34;99008.59;;;14.85;62.26
41515;BME280;27247;48.020;16.720;2023-04-25T11:27:55;99003.97;;;14.92;63.31
41515;BME280;27247;48.020;16.720;2023-04-25T11:32:06;99006.34;;;14.63;63.83
41515;BME280;27247;48.020;16.720;2023-04-25T11:36:16;99007.84;;;14.96;63.29
41515;BME280;27247;48.020;16.720;2023-04-25T11:40:27;99003.16;;;14.91;63.69
41515;BME280;27247;48.020;16.720;2023-04-25T11:44:38;98997.28;;;15.31;62.23
41515;BME280;27247;48.020;16.720;2023-04-25T11:48:50;98998.38;;;15.60;61.11
41515;BME280;27247;48.020;16.720;2023-04-25T11:53:00;98985.66;;;16.20;59.55
41515;BME280;27247;48.020;16.720;2023-04-25T11:57:11;98990.25;;;16.55;58.59
41515;BME280;27247;48.020;16.720;2023-04-25T12:01:32;98992.53;;;16.70;55.64
41515;BME280;27247;48.020;16.720;2023-04-25T12:05:44;98984.28;;;17.40;57.11
41515;BME280;27247;48.020;16.720;2023-04-25T12:09:55;99005.09;;;18.13;55.68
41515;BME280;27247;48.020;16.720;2023-04-25T12:14:05;99037.50;;;17.28;57.10
41515;BME280;27247;48.020;16.720;2023-04-25T12:18:22;99039.16;;;15.45;63.65
41515;BME280;27247;48.020;16.720;2023-04-25T12:22:34;99060.75;;;14.02;69.75
41515;BME280;27247;48.020;16.720;2023-04-25T12:26:52;99073.69;;;13.29;73.87
41515;BME280;27247;48.020;16.720;2023-04-25T12:31:05;99072.34;;;12.74;76.22
41515;BME280;27247;48.020;16.720;2023-04-25T12:35:15;99096.44;;;12.14;78.46
41515;BME280;27247;48.020;16.720;2023-04-25T12:39:26;99082.78;;;11.42;77.93
41515;BME280;27247;48.020;16.720;2023-04-25T12:43:36;99082.56;;;10.96;79.04
41515;BME280;27247;48.020;16.720;2023-04-25T12:47:47;99067.19;;;10.70;77.36
41515;BME280;27247;48.020;16.720;2023-04-25T12:51:58;99070.13;;;10.81;78.22
41515;BME280;27247;48.020;16.720;2023-04-25T12:56:08;99057.97;;;11.13;83.46
41515;BME280;27247;48.020;16.720;2023-04-25T13:00:18;99043.81;;;11.67;80.14
41515;BME280;27247;48.020;16.720;2023-04-25T13:04:29;99030.09;;;12.36;78.44
41515;BME280;27247;48.020;16.720;2023-04-25T13:08:40;99029.31;;;13.33;76.95
41515;BME280;27247;48.020;16.720;2023-04-25T13:12:51;99025.47;;;14.24;73.52
41515;BME280;27247;48.020;16.720;2023-04-25T13:17:02;99018.19;;;14.99;73.00
41515;BME280;27247;48.020;16.720;2023-04-25T13:21:13;99014.16;;;15.56;70.65
41515;BME280;27247;48.020;16.720;2023-04-25T13:25:23;99016.19;;;15.43;69.97
41515;BME280;27247;48.020;16.720;2023-04-25T13:29:33;99012.28;;;15.57;68.67
41515;BME280;27247;48.020;16.720;2023-04-25T13:33:45;99015.06;;;15.69;67.02
41515;BME280;27247;48.020;16.720;2023-04-25T13:37:56;99019.91;;;16.20;65.35
41515;BME280;27247;48.020;16.720;2023-04-25T13:42:06;99018.13;;;16.25;64.05
41515;BME280;27247;48.020;16.720;2023-04-25T13:46:16;99024.94;;;16.28;62.89
41515;BME280;27247;48.020;16.720;2023-04-25T13:50:27;99013.53;;;16.79;61.65
41515;BME280;27247;48.020;16.720;2023-04-25T13:54:37;99009.00;;;17.20;60.36
41515;BME280;27247;48.020;16.720;2023-04-25T13:58:48;99006.94;;;17.39;59.62
41515;BME280;27247;48.020;16.720;2023-04-25T14:02:58;98997.91;;;17.62;59.07
41515;BME280;27247;48.020;16.720;2023-04-25T14:07:08;99004.72;;;17.76;61.36
41515;BME280;27247;48.020;16.720;2023-04-25T14:11:20;99002.69;;;17.83;57.65
41515;BME280;27247;48.020;16.720;2023-04-25T14:15:31;99010.50;;;17.56;56.27
41515;BME280;27247;48.020;16.720;2023-04-25T14:19:42;99007.00;;;17.55;57.82
41515;BME280;27247;48.020;16.720;2023-04-25T14:23:57;99000.22;;;17.41;57.84
41515;BME280;27247;48.020;16.720;2023-04-25T14:28:09;99005.00;;;17.51;56.44
41515;BME280;27247;48.020;16.720;2023-04-25T14:32:19;98992.91;;;17.25;58.12
41515;BME280;27247;48.020;16.720;2023-04-25T14:36:32;98990.66;;;16.70;58.06
41515;BME280;27247;48.020;16.720;2023-04-25T14:40:42;98998.94;;;16.45;60.36
41515;BME280;27247;48.020;16.720;2023-04-25T14:44:52;98987.84;;;15.88;61.28
41515;BME280;27247;48.020;16.720;2023-04-25T14:49:06;99002.66;;;15.68;63.55
41515;BME280;27247;48.020;16.720;2023-04-25T14:53:16;99002.41;;;16.11;61.68
41515;BME280;27247;48.020;16.720;2023-04-25T14:57:26;99003.84;;;16.25;60.16
41515;BME280;27247;48.020;16.720;2023-04-25T15:01:37;99047.50;;;16.04;60.43
41515;BME280;27247;48.020;16.720;2023-04-25T15:05:47;99051.28;;;14.99;65.38
41515;BME280;27247;48.020;16.720;2023-04-25T15:09:58;99066.03;;;13.84;66.14
41515;BME280;27247;48.020;16.720;2023-04-25T15:14:08;99059.44;;;13.35;68.61
41515;BME280;27247;48.020;16.720;2023-04-25T15:18:20;99060.53;;;13.08;69.45
41515;BME280;27247;48.020;16.720;2023-04-25T15:22:33;99048.56;;;13.10;69.90
41515;BME280;27247;48.020;16.720;2023-04-25T15:26:43;99052.44;;;13.28;70.58
41515;BME280;27247;48.020;16.720;2023-04-25T15:30:55;99056.53;;;13.37;70.83
41515;BME280;27247;48.020;16.720;2023-04-25T15:35:06;99059.47;;;13.22;70.54
41515;BME280;27247;48.020;16.720;2023-04-25T15:39:17;99064.81;;;13.29;71.19
41515;BME280;27247;48.020;16.720;2023-04-25T15:43:27;99062.59;;;13.19;71.07
41515;BME280;27247;48.020;16.720;2023-04-25T15:47:38;99070.00;;;13.10;71.74
41515;BME280;27247;48.020;16.720;2023-04-25T15:51:50;99069.41;;;13.08;73.11
41515;BME280;27247;48.020;16.720;2023-04-25T15:56:00;99077.84;;;13.19;71.61
41515;BME280;27247;48.020;16.720;2023-04-25T16:00:13;99073.91;;;13.28;69.67
41515;BME280;27247;48.020;16.720;2023-04-25T16:04:24;99075.28;;;13.43;70.23
41515;BME280;27247;48.020;16.720;2023-04-25T16:08:36;99073.66;;;13.42;70.30
41515;BME280;27247;48.020;16.720;2023-04-25T16:12:48;99080.41;;;13.52;71.46
41515;BME280;27247;48.020;16.720;2023-04-25T16:16:59;99082.75;;;13.35;68.68
41515;BME280;27247;48.020;16.720;2023-04-25T16:21:09;99086.50;;;13.27;69.49
41515;BME280;27247;48.020;16.720;2023-04-25T16:25:20;99090.84;;;13.08;69.09
41515;BME280;27247;48.020;16.720;2023-04-25T16:29:31;99099.13;;;12.94;70.03
41515;BME280;27247;48.020;16.720;2023-04-25T16:33:41;99116.25;;;12.93;70.52
41515;BME280;27247;48.020;16.720;2023-04-25T16:37:52;99123.09;;;12.82;71.84
41515;BME280;27247;48.020;16.720;2023-04-25T16:42:02;99135.47;;;12.63;68.21
41515;BME280;27247;48.020;16.720;2023-04-25T16:46:13;99131.50;;;12.46;67.84
41515;BME280;27247;48.020;16.720;2023-04-25T16:50:23;99127.16;;;12.32;70.47
41515;BME280;27247;48.020;16.720;2023-04-25T16:54:33;99144.25;;;12.24;70.96
41515;BME280;27247;48.020;16.720;2023-04-25T16:58:44;99144.03;;;12.12;72.68
41515;BME280;27247;48.020;16.720;2023-04-25T17:02:54;99146.09;;;12.10;73.01
41515;BME280;27247;48.020;16.720;2023-04-25T17:07:04;99148.13;;;12.08;72.55
41515;BME280;27247;48.020;16.720;2023-04-25T17:11:15;99159.63;;;11.96;72.36
41515;BME280;27247;48.020;16.720;2023-04-25T17:15:26;99165.41;;;11.93;72.41
41515;BME280;27247;48.020;16.720;2023-04-25T17:19:37;99168.25;;;11.85;72.91
41515;BME280;27247;48.020;16.720;2023-04-25T17:23:47;99169.38;;;11.69;72.54
41515;BME280;27247;48.020;16.720;2023-04-25T17:27:58;99169.72;;;11.52;73.38
41515;BME280;27247;48.020;16.720;2023-04-25T17:32:08;99176.16;;;11.30;74.00
41515;BME280;27247;48.020;16.720;2023-04-25T17:36:19;99184.13;;;11.24;74.24
41515;BME280;27247;48.020;16.720;2023-04-25T17:40:30;99184.47;;;11.14;74.64
41515;BME280;27247;48.020;16.720;2023-04-25T17:44:41;99187.31;;;11.06;75.30
41515;BME280;27247;48.020;16.720;2023-04-25T17:48:52;99190.59;;;11.08;76.25
41515;BME280;27247;48.020;16.720;2023-04-25T17:53:02;99191.97;;;10.97;76.18
41515;BME280;27247;48.020;16.720;2023-04-25T17:57:12;99202.09;;;11.02;76.76
41515;BME280;27247;48.020;16.720;2023-04-25T18:01:23;99199.47;;;11.08;76.38
41515;BME280;27247;48.020;16.720;2023-04-25T18:05:33;99208.53;;;11.14;80.13
41515;BME280;27247;48.020;16.720;2023-04-25T18:09:45;99204.94;;;11.00;80.41
41515;BME280;27247;48.020;16.720;2023-04-25T18:13:55;99222.66;;;10.80;80.72
41515;BME280;27247;48.020;16.720;2023-04-25T18:18:06;99224.50;;;10.79;80.47
41515;BME280;27247;48.020;16.720;2023-04-25T18:22:24;99232.66;;;10.71;81.67
41515;BME280;27247;48.020;16.720;2023-04-25T18:26:34;99241.50;;;10.50;82.50
41515;BME280;27247;48.020;16.720;2023-04-25T18:30:45;99241.81;;;10.41;83.50
41515;BME280;27247;48.020;16.720;2023-04-25T18:34:56;99249.47;;;10.14;84.82
41515;BME280;27247;48.020;16.720;2023-04-25T18:39:06;99251.59;;;10.04;85.56
41515;BME280;27247;48.020;16.720;2023-04-25T18:43:17;99262.56;;;9.80;86.21
41515;BME280;27247;48.020;16.720;2023-04-25T18:47:28;99268.38;;;9.69;86.68
41515;BME280;27247;48.020;16.720;2023-04-25T18:51:38;99275.63;;;9.60;86.56
41515;BME280;27247;48.020;16.720;2023-04-25T18:55:53;99273.69;;;9.54;86.57
41515;BME280;27247;48.020;16.720;2023-04-25T19:00:06;99279.22;;;9.52;86.40
41515;BME280;27247;48.020;16.720;2023-04-25T19:04:16;99278.69;;;9.34;86.67
41515;BME280;27247;48.020;16.720;2023-04-25T19:08:27;99288.31;;;9.20;86.68
41515;BME280;27247;48.020;16.720;2023-04-25T19:12:39;99285.25;;;9.09;87.34
41515;BME280;27247;48.020;16.720;2023-04-25T19:16:49;99295.53;;;8.97;87.81
41515;BME280;27247;48.020;16.720;2023-04-25T19:21:00;99291.31;;;8.80;88.53
41515;BME280;27247;48.020;16.720;2023-04-25T19:25:10;99297.94;;;8.84;88.92
41515;BME280;27247;48.020;16.720;2023-04-25T19:29:21;99305.13;;;8.83;88.28
41515;BME280;27247;48.020;16.720;2023-04-25T19:33:32;99308.50;;;8.77;87.85
41515;BME280;27247;48.020;16.720;2023-04-25T19:37:43;99318.91;;;8.87;87.99
41515;BME280;27247;48.020;16.720;2023-04-25T19:41:56;99322.34;;;8.95;87.43
41515;BME280;27247;48.020;16.720;2023-04-25T19:46:07;99325.91;;;8.88;87.35
41515;BME280;27247;48.020;16.720;2023-04-25T19:50:18;99330.41;;;8.87;87.63
41515;BME280;27247;48.020;16.720;2023-04-25T19:54:30;99329.22;;;8.90;87.70
41515;BME280;27247;48.020;16.720;2023-04-25T19:58:41;99339.53;;;8.93;87.76
41515;BME280;27247;48.020;16.720;2023-04-25T20:02:52;99350.53;;;8.90;87.14
41515;BME280;27247;48.020;16.720;2023-04-25T20:07:03;99342.06;;;8.86;87.25
41515;BME280;27247;48.020;16.720;2023-04-25T20:11:13;99344.56;;;8.88;87.37
41515;BME280;27247;48.020;16.720;2023-04-25T20:15:24;99355.75;;;8.83;87.10
41515;BME280;27247;48.020;16.720;2023-04-25T20:19:35;99349.63;;;8.75;87.07
41515;BME280;27247;48.020;16.720;2023-04-25T20:23:46;99349.41;;;8.84;86.94
41515;BME280;27247;48.020;16.720;2023-04-25T20:27:56;99357.88;;;8.88;86.82
41515;BME280;27247;48.020;16.720;2023-04-25T20:32:07;99351.41;;;8.82;87.12
41515;BME280;27247;48.020;16.720;2023-04-25T20:36:17;99352.13;;;8.76;87.51
41515;BME280;27247;48.020;16.720;2023-04-25T20:40:29;99360.69;;;8.63;87.89
41515;BME280;27247;48.020;16.720;2023-04-25T20:44:39;99373.88;;;8.57;88.47
41515;BME280;27247;48.020;16.720;2023-04-25T20:48:50;99363.22;;;8.57;88.45
41515;BME280;27247;48.020;16.720;2023-04-25T20:53:01;99364.84;;;8.66;88.90
41515;BME280;27247;48.020;16.720;2023-04-25T20:57:12;99376.53;;;8.57;88.93
41515;BME280;27247;48.020;16.720;2023-04-25T21:01:23;99372.03;;;8.57;89.45
41515;BME280;27247;48.020;16.720;2023-04-25T21:05:33;99381.69;;;8.58;90.01
41515;BME280;27247;48.020;16.720;2023-04-25T21:09:43;99387.66;;;8.60;90.17
41515;BME280;27247;48.020;16.720;2023-04-25T21:13:54;99393.50;;;8.56;90.60
41515;BME280;27247;48.020;16.720;2023-04-25T21:18:05;99407.84;;;8.55;90.63
41515;BME280;27247;48.020;16.720;2023-04-25T21:22:16;99412.53;;;8.45;91.18
41515;BME280;27247;48.020;16.720;2023-04-25T21:26:26;99413.19;;;8.47;91.30
41515;BME280;27247;48.020;16.720;2023-04-25T21:30:36;99423.31;;;8.51;91.26
41515;BME280;27247;48.020;16.720;2023-04-25T21:34:47;99428.88;;;8.34;91.80
41515;BME280;27247;48.020;16.720;2023-04-25T21:38:58;99423.88;;;8.39;91.63
41515;BME280;27247;48.020;16.720;2023-04-25T21:43:09;99429.34;;;8.21;92.04
41515;BME280;27247;48.020;16.720;2023-04-25T21:47:19;99434.22;;;8.34;92.04
41515;BME280;27247;48.020;16.720;2023-04-25T21:51:30;99447.97;;;8.29;92.33
41515;BME280;27247;48.020;16.720;2023-04-25T21:55:41;99454.94;;;8.30;92.21
41515;BME280;27247;48.020;16.720;2023-04-25T21:59:51;99459.94;;;8.25;92.61
41515;BME280;27247;48.020;16.720;2023-04-25T22:04:02;99467.78;;;8.26;92.27